createdAt,value
2024-03-09T13:49:08.266Z,12.60
2024-03-09T13:51:35.200Z,6.82
2024-03-09T13:54:01.926Z,10.73
2024-03-09T13:56:28.648Z,8.18
2024-03-09T13:58:55.426Z,8.80
2024-03-09T14:01:22.241Z,6.00
2024-03-09T14:03:49.017Z,9.93
2024-03-09T14:06:15.917Z,9.37
2024-03-09T14:08:42.746Z,8.05
2024-03-09T14:11:09.521Z,10.93
2024-03-09T14:13:36.467Z,11.30
2024-03-09T14:16:03.265Z,8.90
2024-03-09T14:18:30.017Z,8.27
2024-03-09T14:20:56.753Z,6.10
2024-03-09T14:23:23.600Z,4.85
2024-03-09T14:25:50.399Z,10.85
2024-03-09T14:28:17.149Z,11.40
2024-03-09T14:30:44.151Z,10.93
2024-03-09T14:33:10.960Z,5.55
2024-03-09T14:35:37.698Z,7.28
2024-03-09T14:38:04.453Z,9.00
2024-03-09T14:40:31.169Z,5.85
2024-03-09T14:42:57.881Z,11.40
2024-03-09T14:45:25.027Z,7.78
2024-03-09T14:47:51.861Z,6.68
2024-03-09T14:50:18.658Z,9.52
2024-03-09T14:52:45.392Z,7.50
2024-03-09T14:55:12.181Z,11.43
2024-03-09T14:57:38.955Z,6.72
2024-03-09T15:00:05.691Z,7.25
2024-03-09T15:02:32.406Z,10.25
2024-03-09T15:04:59.215Z,7.38
2024-03-09T15:07:25.953Z,9.03
2024-03-09T15:09:52.728Z,9.55
2024-03-09T15:12:19.483Z,12.48
2024-03-09T15:14:46.199Z,13.25
2024-03-09T15:17:13.249Z,12.82
2024-03-09T15:19:40.009Z,6.73
2024-03-09T15:22:06.765Z,9.07
2024-03-09T15:24:33.678Z,9.95
2024-03-09T15:27:00.453Z,7.55
2024-03-09T15:29:27.241Z,4.95
2024-03-09T15:31:54.026Z,7.67
2024-03-09T15:34:20.741Z,6.97
2024-03-09T15:36:47.452Z,5.88
2024-03-09T15:39:14.214Z,5.80
2024-03-09T15:41:40.959Z,7.80
2024-03-09T15:44:08.063Z,8.23
2024-03-09T15:46:35.214Z,7.13
2024-03-09T15:49:01.981Z,5.25
2024-03-09T15:51:28.707Z,9.68
2024-03-09T15:53:55.399Z,5.80
2024-03-09T15:56:22.569Z,5.30
2024-03-09T15:58:49.770Z,5.40
2024-03-09T16:01:17.620Z,5.90
2024-03-09T16:03:44.711Z,6.50
2024-03-09T16:06:11.412Z,4.78
2024-03-09T16:08:38.106Z,4.90
2024-03-09T16:11:04.856Z,5.10
2024-03-09T16:13:31.629Z,4.38
2024-03-09T16:15:58.377Z,9.73
2024-03-09T16:18:25.091Z,10.30
2024-03-09T16:20:52.029Z,5.70
2024-03-09T16:23:19.079Z,6.00
2024-03-09T16:25:46.179Z,11.23
2024-03-09T16:28:12.880Z,12.60
2024-03-09T16:30:39.600Z,6.10
2024-03-09T16:33:06.366Z,12.20
2024-03-09T16:35:33.093Z,10.02
2024-03-09T16:38:00.180Z,18.98
2024-03-09T16:40:27.161Z,10.23
2024-03-09T16:42:54.580Z,11.25
2024-03-09T16:45:21.466Z,10.77
2024-03-09T16:47:48.277Z,6.53
2024-03-09T16:50:15.089Z,11.98
2024-03-09T16:52:41.868Z,11.73
2024-03-09T16:55:08.566Z,8.80
2024-03-09T16:57:35.288Z,12.87
2024-03-09T17:00:02.014Z,15.77
2024-03-09T17:02:28.763Z,14.13
2024-03-09T17:04:55.650Z,13.60
2024-03-09T17:07:22.524Z,8.52
2024-03-09T17:09:49.379Z,6.90
2024-03-09T17:12:16.179Z,12.90
2024-03-09T17:14:43.086Z,10.10
2024-03-09T17:17:09.918Z,12.13
2024-03-09T17:19:36.847Z,19.15
2024-03-09T17:22:03.735Z,9.70
2024-03-09T17:24:30.483Z,9.15
2024-03-09T17:27:00.119Z,17.27
2024-03-09T17:29:27.283Z,13.52
2024-03-09T17:31:54.194Z,12.68
2024-03-09T17:34:20.944Z,10.20
2024-03-09T17:36:47.665Z,9.25
2024-03-09T17:39:14.472Z,10.77
2024-03-09T17:41:41.256Z,17.27
2024-03-09T17:44:08.277Z,14.20
2024-03-09T17:46:35.484Z,18.27
2024-03-09T17:49:02.282Z,16.77
2024-03-09T17:51:29.089Z,11.68
2024-03-09T17:53:55.997Z,13.55
2024-03-09T17:56:23.109Z,12.45
2024-03-09T17:58:49.912Z,8.27
2024-03-09T18:01:17.933Z,10.93
2024-03-09T18:03:44.658Z,14.48
2024-03-09T18:06:11.384Z,8.10
2024-03-09T18:08:38.099Z,12.32
2024-03-09T18:11:05.027Z,7.37
2024-03-09T18:13:31.883Z,6.45
2024-03-09T18:15:59.766Z,8.48
2024-03-09T18:18:26.763Z,8.60
2024-03-09T18:20:53.651Z,5.60
2024-03-09T18:23:20.723Z,4.93
2024-03-09T18:25:48.412Z,9.82
2024-03-09T18:28:15.263Z,5.45
2024-03-09T18:30:41.995Z,6.88
2024-03-09T18:33:08.868Z,6.65
2024-03-09T18:35:35.894Z,4.77
2024-03-09T18:38:03.244Z,8.13
2024-03-09T18:40:30.482Z,4.50
2024-03-09T18:42:57.410Z,8.13
2024-03-09T18:45:24.114Z,5.38
2024-03-09T18:47:50.921Z,4.53
2024-03-09T18:50:17.704Z,7.60
2024-03-09T18:52:44.694Z,3.78
2024-03-09T18:55:11.447Z,8.52
2024-03-09T18:57:38.176Z,4.93
2024-03-09T19:00:06.913Z,8.07
2024-03-09T19:02:33.803Z,7.07
2024-03-09T19:05:00.566Z,9.25
2024-03-09T19:07:27.307Z,6.75
2024-03-09T19:09:54.171Z,4.25
2024-03-09T19:12:20.868Z,4.43
2024-03-09T19:14:47.693Z,6.50
2024-03-09T19:17:14.637Z,8.35
2024-03-09T19:19:41.592Z,5.85
2024-03-09T19:22:08.504Z,5.60
2024-03-09T19:24:35.413Z,4.97
2024-03-09T19:27:02.370Z,4.68
2024-03-09T19:29:29.137Z,5.40
2024-03-09T19:31:55.933Z,5.95
2024-03-09T19:34:22.657Z,6.15
2024-03-09T19:36:49.405Z,5.63
2024-03-09T19:39:16.159Z,5.68
2024-03-09T19:41:42.872Z,5.00
2024-03-09T19:44:09.630Z,5.28
2024-03-09T19:46:36.375Z,4.47
2024-03-09T19:49:03.061Z,3.70
2024-03-09T19:51:29.894Z,3.50
2024-03-09T19:53:56.650Z,5.40
2024-03-09T19:56:23.560Z,4.28
2024-03-09T19:58:50.395Z,4.40
2024-03-09T20:01:17.123Z,7.93
2024-03-09T20:03:44.082Z,3.85
2024-03-09T20:06:10.784Z,3.45
2024-03-09T20:08:37.483Z,3.85
2024-03-09T20:11:04.534Z,3.92
2024-03-09T20:13:31.402Z,4.33
2024-03-09T20:15:58.099Z,4.20
2024-03-09T20:18:24.901Z,4.43
2024-03-09T20:20:51.657Z,4.70
2024-03-09T20:23:18.459Z,4.22
2024-03-09T20:25:45.407Z,3.23
2024-03-09T20:28:12.147Z,3.88
2024-03-09T20:30:39.236Z,4.03
2024-03-09T20:33:06.076Z,3.95
2024-03-09T20:35:32.891Z,3.92
2024-03-09T20:37:59.662Z,3.20
2024-03-09T20:40:26.375Z,3.10
2024-03-09T20:42:53.131Z,3.50
2024-03-09T20:45:20.198Z,3.22
2024-03-09T20:47:47.534Z,3.08
2024-03-09T20:50:14.598Z,4.00
2024-03-09T20:52:41.463Z,3.58
2024-03-09T20:55:08.237Z,3.00
2024-03-09T20:57:34.967Z,2.88
2024-03-09T21:00:01.669Z,3.83
2024-03-09T21:02:28.416Z,3.20
2024-03-09T21:04:55.340Z,4.38
2024-03-09T21:07:22.060Z,5.97
2024-03-09T21:09:48.789Z,3.03
2024-03-09T21:12:15.567Z,3.50
2024-03-09T21:14:42.367Z,2.87
2024-03-09T21:17:09.159Z,4.50
2024-03-09T21:19:35.955Z,5.88
2024-03-09T21:22:02.821Z,5.47
2024-03-09T21:24:29.570Z,8.82
2024-03-09T21:26:56.251Z,5.20
2024-03-09T21:29:22.982Z,4.32
2024-03-09T21:31:49.787Z,7.28
2024-03-09T21:34:16.518Z,5.70
2024-03-09T21:36:43.243Z,8.50
2024-03-09T21:39:10.119Z,6.27
2024-03-09T21:41:36.833Z,4.85
2024-03-09T21:44:03.558Z,9.45
2024-03-09T21:46:30.254Z,5.63
2024-03-09T21:48:56.946Z,13.48
2024-03-09T21:51:23.645Z,8.97
2024-03-09T21:53:50.583Z,8.18
2024-03-09T21:56:17.341Z,5.72
2024-03-09T21:58:44.122Z,6.00
2024-03-09T22:01:10.858Z,7.97
2024-03-09T22:03:37.735Z,5.80
2024-03-09T22:06:04.440Z,4.55
2024-03-09T22:08:31.194Z,6.18
2024-03-09T22:10:57.937Z,4.75
2024-03-09T22:13:24.658Z,5.60
2024-03-09T22:15:51.381Z,6.00
2024-03-09T22:18:18.156Z,6.40
2024-03-09T22:20:45.056Z,8.57
2024-03-09T22:23:11.958Z,6.65
2024-03-09T22:25:38.745Z,4.07
2024-03-09T22:28:05.496Z,3.97
2024-03-09T22:30:32.215Z,4.63
2024-03-09T22:32:59.123Z,6.07
2024-03-09T22:35:25.905Z,6.30
2024-03-09T22:37:52.794Z,3.60
2024-03-09T22:40:19.597Z,3.07
2024-03-09T22:42:46.298Z,3.75
2024-03-09T22:45:13.227Z,5.40
2024-03-09T22:47:40.164Z,3.85
2024-03-09T22:50:07.084Z,5.80
2024-03-09T22:52:33.815Z,3.77
2024-03-09T22:55:00.527Z,3.42
2024-03-09T22:57:27.238Z,3.70
2024-03-09T22:59:53.955Z,5.40
2024-03-09T23:02:20.712Z,5.50
2024-03-09T23:04:47.499Z,4.20
2024-03-09T23:07:14.213Z,3.00
2024-03-09T23:09:40.945Z,3.95
2024-03-09T23:12:07.712Z,3.58
2024-03-09T23:14:34.496Z,4.03
2024-03-09T23:17:01.283Z,3.90
2024-03-09T23:19:28.042Z,4.78
2024-03-09T23:21:54.733Z,3.35
2024-03-09T23:24:21.443Z,2.55
2024-03-09T23:26:48.168Z,3.15
2024-03-09T23:29:14.943Z,4.43
2024-03-09T23:31:41.705Z,4.22
2024-03-09T23:34:08.437Z,3.97
2024-03-09T23:36:35.189Z,3.38
2024-03-09T23:39:01.924Z,3.42
2024-03-09T23:41:28.673Z,2.50
2024-03-09T23:43:55.459Z,3.25
2024-03-09T23:46:22.216Z,2.47
2024-03-09T23:48:48.930Z,2.88
2024-03-09T23:51:15.757Z,3.00
2024-03-09T23:53:42.619Z,3.27
2024-03-09T23:56:09.366Z,3.60
2024-03-09T23:58:36.090Z,2.85
